createdAt,value
2019-01-30T11:12:21.325Z,18.97
2019-01-30T11:17:26.655Z,15.40
2019-01-30T11:22:31.944Z,16.57
2019-01-30T11:27:37.272Z,14.97
2019-01-30T11:32:42.594Z,15.30
2019-01-30T11:37:47.970Z,15.00
2019-01-30T11:42:53.276Z,15.73
2019-01-30T11:47:58.580Z,16.60
2019-01-30T11:53:04.319Z,16.47
2019-01-30T11:58:09.821Z,16.57
2019-01-30T12:03:15.274Z,14.17
2019-01-30T12:08:20.604Z,14.67
2019-01-30T12:13:25.977Z,16.77
2019-01-30T12:18:31.268Z,18.27
2019-01-30T12:23:36.561Z,15.83
2019-01-30T12:28:41.928Z,17.20
2019-01-30T12:33:47.247Z,17.30
2019-01-30T12:38:52.787Z,15.40
2019-01-30T12:43:58.097Z,18.00
2019-01-30T12:49:03.488Z,16.60
2019-01-30T12:54:08.814Z,19.87
2019-01-30T12:59:14.128Z,17.23
2019-01-30T13:04:19.411Z,18.17
2019-01-30T13:09:24.763Z,18.50
2019-01-30T13:14:30.250Z,18.27
2019-01-30T13:19:35.554Z,16.70
2019-01-30T13:24:40.862Z,18.10
2019-01-30T13:29:46.228Z,17.43
2019-01-30T13:34:51.685Z,18.30
2019-01-30T13:39:56.992Z,20.30
2019-01-30T13:45:02.318Z,23.63
2019-01-30T13:50:20.544Z,23.07
2019-01-30T13:55:25.917Z,23.87
2019-01-30T14:00:33.874Z,24.90
2019-01-30T14:05:39.294Z,21.67
2019-01-30T14:10:44.689Z,21.30
2019-01-30T14:15:50.104Z,24.10
2019-01-30T14:20:55.500Z,23.73
2019-01-30T14:26:00.794Z,25.27
2019-01-30T14:31:06.341Z,23.20
2019-01-30T14:36:11.654Z,23.80
2019-01-30T14:41:17.077Z,22.03
2019-01-30T14:46:22.510Z,24.63
2019-01-30T14:51:27.803Z,22.97
2019-01-30T14:56:33.116Z,25.23
2019-01-30T15:01:38.440Z,22.70
2019-01-30T15:06:43.788Z,28.13
2019-01-30T15:11:49.159Z,22.53
2019-01-30T15:16:54.714Z,20.47
2019-01-30T15:22:02.016Z,21.27
2019-01-30T15:27:07.386Z,18.10
2019-01-30T15:32:12.699Z,22.70
2019-01-30T15:37:18.040Z,21.87
2019-01-30T15:42:23.335Z,20.40
2019-01-30T15:47:28.640Z,20.13
2019-01-30T15:52:33.975Z,23.37
2019-01-30T15:57:39.290Z,23.43
2019-01-30T16:02:44.677Z,24.57
2019-01-30T16:07:50.058Z,26.37
2019-01-30T16:12:55.391Z,29.87
2019-01-30T16:18:00.786Z,31.03
2019-01-30T16:23:06.111Z,28.70
2019-01-30T16:28:11.421Z,35.50
2019-01-30T16:33:17.026Z,32.03
2019-01-30T16:38:22.403Z,37.67
2019-01-30T16:43:27.828Z,38.50
2019-01-30T16:48:33.176Z,41.13
2019-01-30T16:53:38.498Z,42.90
2019-01-30T16:58:43.775Z,45.70
2019-01-30T17:03:49.057Z,43.33
2019-01-30T17:08:54.564Z,43.60
2019-01-30T17:13:59.949Z,50.07
2019-01-30T17:19:05.387Z,50.90
2019-01-30T17:24:12.055Z,46.57
2019-01-30T17:29:19.477Z,47.37
2019-01-30T17:34:25.788Z,45.67
2019-01-30T17:39:41.187Z,40.57
2019-01-30T17:44:47.504Z,40.53
2019-01-30T17:49:52.848Z,39.80
2019-01-30T17:54:58.165Z,38.20
2019-01-30T18:00:05.283Z,32.50
2019-01-30T18:05:10.711Z,32.43
2019-01-30T18:10:17.927Z,34.43
2019-01-30T18:15:23.461Z,31.27
2019-01-30T18:20:28.868Z,29.57
2019-01-30T18:25:34.187Z,32.73
2019-01-30T18:30:39.758Z,33.10
2019-01-30T18:35:45.119Z,30.97
2019-01-30T18:40:50.433Z,31.53
2019-01-30T18:45:55.870Z,30.43
2019-01-30T18:51:01.351Z,29.50
2019-01-30T18:56:07.111Z,30.93
2019-01-30T19:01:12.638Z,28.37
2019-01-30T19:06:18.104Z,28.60
2019-01-30T19:11:23.837Z,29.03
2019-01-30T19:16:29.362Z,31.43
2019-01-30T19:21:34.919Z,30.47
2019-01-30T19:26:40.498Z,26.53
2019-01-30T19:31:46.111Z,29.10
2019-01-30T19:37:02.932Z,26.63
2019-01-30T19:41:58.866Z,28.03
2019-01-30T19:47:04.336Z,27.77
2019-01-30T19:52:09.834Z,23.87
2019-01-30T19:57:15.822Z,24.20
2019-01-30T20:02:21.246Z,22.00
2019-01-30T20:07:26.913Z,22.53
2019-01-30T20:12:32.356Z,21.10
2019-01-30T20:17:37.883Z,19.67
2019-01-30T20:22:43.447Z,16.87
2019-01-30T20:27:48.886Z,20.23
2019-01-30T20:32:54.510Z,17.90
2019-01-30T20:37:59.857Z,19.53
2019-01-30T20:43:05.174Z,20.87
2019-01-30T20:48:10.571Z,19.50
2019-01-30T20:53:15.899Z,21.93
2019-01-30T20:58:21.268Z,24.20
2019-01-30T21:03:26.591Z,22.13
2019-01-30T21:08:31.917Z,18.97
2019-01-30T21:13:37.273Z,19.57
2019-01-30T21:18:42.606Z,19.80
2019-01-30T21:23:47.939Z,20.80
2019-01-30T21:28:53.281Z,18.70
2019-01-30T21:33:58.620Z,20.37
2019-01-30T21:39:05.534Z,20.37
2019-01-30T21:44:10.834Z,15.70
2019-01-30T21:54:20.307Z,22.00
2019-01-30T21:59:25.643Z,16.93
2019-01-30T22:04:30.944Z,18.53
2019-01-30T22:09:36.298Z,22.10
2019-01-30T22:14:41.797Z,20.33
2019-01-30T22:19:47.132Z,19.13
2019-01-30T22:24:52.463Z,17.23
2019-01-30T22:29:57.836Z,15.83
2019-01-30T22:35:03.143Z,16.47
2019-01-30T22:40:10.167Z,18.43
2019-01-30T22:45:17.205Z,15.77
2019-01-30T22:50:22.794Z,17.20
2019-01-30T22:55:28.172Z,16.53
2019-01-30T23:01:20.354Z,13.27
2019-01-30T23:07:29.158Z,15.17
2019-01-30T23:13:22.170Z,19.90
2019-01-30T23:19:00.695Z,14.53
2019-01-30T23:24:56.294Z,13.50
2019-01-30T23:30:45.216Z,15.33
2019-01-30T23:36:27.323Z,12.47
2019-01-30T23:42:01.697Z,15.80
2019-01-30T23:47:54.011Z,12.77
2019-01-30T23:53:56.198Z,10.90
2019-01-30T23:59:43.339Z,11.23
